sensor_id;sensor_type;location;lat;lon;timestamp;pressure;altitude;pressure_sealevel;temperature;humidity
48964;BME280;34776;48.180;16.420;2022-08-01T00:01:37;99628.38;;;20.82;57.45
48964;BME280;34776;48.180;16.420;2022-08-01T00:04:03;99624.44;;;20.77;57.55
48964;BME280;34776;48.180;16.420;2022-08-01T00:06:29;99629.28;;;20.73;57.71
48964;BME280;34776;48.180;16.420;2022-08-01T00:08:54;99620.47;;;20.71;58.10
48964;BME280;34776;48.180;16.420;2022-08-01T00:11:21;99624.47;;;20.67;58.11
48964;BME280;34776;48.180;16.420;2022-08-01T00:13:47;99621.91;;;20.65;58.28
48964;BME280;34776;48.180;16.420;2022-08-01T00:16:12;99621.06;;;20.65;58.51
48964;BME280;34776;48.180;16.420;2022-08-01T00:18:38;99619.66;;;20.61;58.51
48964;BME280;34776;48.180;16.420;2022-08-01T00:21:04;99616.25;;;20.59;58.71
48964;BME280;34776;48.180;16.420;2022-08-01T00:23:29;99612.81;;;20.57;58.74
48964;BME280;34776;48.180;16.420;2022-08-01T00:25:55;99613.13;;;20.54;59.05
48964;BME280;34776;48.180;16.420;2022-08-01T00:28:20;99609.75;;;20.52;59.20
48964;BME280;34776;48.180;16.420;2022-08-01T00:30:46;99608.03;;;20.51;59.51
48964;BME280;34776;48.180;16.420;2022-08-01T00:33:11;99604.63;;;20.48;59.49
48964;BME280;34776;48.180;16.420;2022-08-01T00:35:36;99607.19;;;20.50;59.73
48964;BME280;34776;48.180;16.420;2022-08-01T00:38:02;99605.19;;;20.52;59.86
48964;BME280;34776;48.180;16.420;2022-08-01T00:40:27;99608.16;;;20.59;59.90
48964;BME280;34776;48.180;16.420;2022-08-01T00:42:53;99602.16;;;20.65;59.83
48964;BME280;34776;48.180;16.420;2022-08-01T00:45:18;99602.97;;;20.75;59.84
48964;BME280;34776;48.180;16.420;2022-08-01T00:47:44;99608.88;;;20.88;59.48
48964;BME280;34776;48.180;16.420;2022-08-01T00:50:10;99603.28;;;21.00;59.51
48964;BME280;34776;48.180;16.420;2022-08-01T00:52:36;99598.97;;;21.07;59.43
48964;BME280;34776;48.180;16.420;2022-08-01T00:55:02;99595.66;;;21.13;59.42
48964;BME280;34776;48.180;16.420;2022-08-01T00:57:29;99597.75;;;21.19;59.25
48964;BME280;34776;48.180;16.420;2022-08-01T00:59:55;99596.84;;;21.28;59.25
48964;BME280;34776;48.180;16.420;2022-08-01T01:02:21;99594.75;;;21.40;58.88
48964;BME280;34776;48.180;16.420;2022-08-01T01:04:46;99603.44;;;21.44;58.85
48964;BME280;34776;48.180;16.420;2022-08-01T01:07:33;99603.97;;;21.47;59.14
48964;BME280;34776;48.180;16.420;2022-08-01T01:10:14;99596.09;;;21.54;58.71
48964;BME280;34776;48.180;16.420;2022-08-01T01:12:47;99600.50;;;21.55;58.54
48964;BME280;34776;48.180;16.420;2022-08-01T01:20:35;99603.44;;;21.62;58.47
48964;BME280;34776;48.180;16.420;2022-08-01T01:31:29;99602.34;;;21.73;58.16
48964;BME280;34776;48.180;16.420;2022-08-01T01:33:57;99601.66;;;21.71;58.18
48964;BME280;34776;48.180;16.420;2022-08-01T01:36:25;99600.28;;;21.66;58.31
48964;BME280;34776;48.180;16.420;2022-08-01T01:38:52;99596.03;;;21.64;58.49
48964;BME280;34776;48.180;16.420;2022-08-01T01:41:19;99589.44;;;21.66;58.55
48964;BME280;34776;48.180;16.420;2022-08-01T01:43:46;99593.25;;;21.74;58.40
48964;BME280;34776;48.180;16.420;2022-08-01T01:46:16;99584.50;;;21.80;57.94
48964;BME280;34776;48.180;16.420;2022-08-01T01:48:44;99582.31;;;21.83;58.03
48964;BME280;34776;48.180;16.420;2022-08-01T01:51:12;99588.28;;;21.87;57.69
48964;BME280;34776;48.180;16.420;2022-08-01T01:53:39;99583.22;;;21.92;57.67
48964;BME280;34776;48.180;16.420;2022-08-01T01:56:06;99595.63;;;21.95;57.80
48964;BME280;34776;48.180;16.420;2022-08-01T01:58:34;99590.03;;;21.96;57.59
48964;BME280;34776;48.180;16.420;2022-08-01T02:01:02;99580.59;;;22.00;57.41
48964;BME280;34776;48.180;16.420;2022-08-01T02:03:29;99588.41;;;22.03;57.61
48964;BME280;34776;48.180;16.420;2022-08-01T02:05:55;99585.38;;;22.06;57.44
48964;BME280;34776;48.180;16.420;2022-08-01T02:08:23;99589.63;;;22.09;57.24
48964;BME280;34776;48.180;16.420;2022-08-01T02:10:51;99591.19;;;22.12;57.12
48964;BME280;34776;48.180;16.420;2022-08-01T02:13:38;99591.00;;;22.13;57.19
48964;BME280;34776;48.180;16.420;2022-08-01T02:16:04;99591.53;;;22.17;56.93
48964;BME280;34776;48.180;16.420;2022-08-01T02:18:31;99585.28;;;22.16;56.99
48964;BME280;34776;48.180;16.420;2022-08-01T02:20:59;99584.25;;;22.17;56.87
48964;BME280;34776;48.180;16.420;2022-08-01T02:23:31;99586.13;;;22.17;56.88
48964;BME280;34776;48.180;16.420;2022-08-01T02:26:00;99589.38;;;22.20;56.82
48964;BME280;34776;48.180;16.420;2022-08-01T02:28:32;99579.38;;;22.21;56.83
48964;BME280;34776;48.180;16.420;2022-08-01T02:31:05;99578.25;;;22.23;56.87
48964;BME280;34776;48.180;16.420;2022-08-01T02:33:38;99582.31;;;22.27;56.67
48964;BME280;34776;48.180;16.420;2022-08-01T02:36:05;99574.06;;;22.29;56.44
48964;BME280;34776;48.180;16.420;2022-08-01T02:38:34;99565.94;;;22.29;56.28
48964;BME280;34776;48.180;16.420;2022-08-01T02:41:05;99573.72;;;22.32;56.37
48964;BME280;34776;48.180;16.420;2022-08-01T02:43:34;99565.44;;;22.34;56.31
48964;BME280;34776;48.180;16.420;2022-08-01T02:46:02;99565.16;;;22.37;56.21
48964;BME280;34776;48.180;16.420;2022-08-01T02:48:30;99565.97;;;22.37;56.17
48964;BME280;34776;48.180;16.420;2022-08-01T02:51:00;99574.78;;;22.39;56.04
48964;BME280;34776;48.180;16.420;2022-08-01T02:53:28;99563.13;;;22.39;55.96
48964;BME280;34776;48.180;16.420;2022-08-01T02:55:56;99573.94;;;22.39;55.94
48964;BME280;34776;48.180;16.420;2022-08-01T02:58:23;99574.94;;;22.38;55.70
48964;BME280;34776;48.180;16.420;2022-08-01T03:00:50;99570.38;;;22.38;55.67
48964;BME280;34776;48.180;16.420;2022-08-01T03:03:16;99575.78;;;22.38;55.61
48964;BME280;34776;48.180;16.420;2022-08-01T03:05:43;99567.66;;;22.38;55.76
48964;BME280;34776;48.180;16.420;2022-08-01T03:08:09;99565.97;;;22.37;55.71
48964;BME280;34776;48.180;16.420;2022-08-01T03:10:37;99569.38;;;22.39;55.67
48964;BME280;34776;48.180;16.420;2022-08-01T03:13:04;99560.22;;;22.40;55.52
48964;BME280;34776;48.180;16.420;2022-08-01T03:15:32;99557.72;;;22.39;55.45
48964;BME280;34776;48.180;16.420;2022-08-01T03:17:59;99562.25;;;22.38;55.44
48964;BME280;34776;48.180;16.420;2022-08-01T03:20:27;99558.56;;;22.39;55.59
48964;BME280;34776;48.180;16.420;2022-08-01T03:22:53;99563.81;;;22.41;55.69
48964;BME280;34776;48.180;16.420;2022-08-01T03:25:20;99557.38;;;22.42;55.59
48964;BME280;34776;48.180;16.420;2022-08-01T03:27:51;99556.53;;;22.41;55.40
48964;BME280;34776;48.180;16.420;2022-08-01T03:30:21;99558.41;;;22.41;55.64
48964;BME280;34776;48.180;16.420;2022-08-01T03:32:47;99547.72;;;22.39;55.42
48964;BME280;34776;48.180;16.420;2022-08-01T03:35:13;99547.38;;;22.42;55.41
48964;BME280;34776;48.180;16.420;2022-08-01T03:37:42;99545.38;;;22.44;55.31
48964;BME280;34776;48.180;16.420;2022-08-01T03:40:13;99545.06;;;22.47;55.28
48964;BME280;34776;48.180;16.420;2022-08-01T03:42:45;99543.03;;;22.49;55.23
48964;BME280;34776;48.180;16.420;2022-08-01T03:45:25;99539.31;;;22.50;54.86
48964;BME280;34776;48.180;16.420;2022-08-01T03:47:56;99546.09;;;22.55;54.63
48964;BME280;34776;48.180;16.420;2022-08-01T03:50:24;99541.22;;;22.58;54.45
48964;BME280;34776;48.180;16.420;2022-08-01T03:52:50;99547.84;;;22.64;53.98
48964;BME280;34776;48.180;16.420;2022-08-01T03:55:19;99549.91;;;22.70;54.05
48964;BME280;34776;48.180;16.420;2022-08-01T03:57:46;99545.84;;;22.74;53.76
48964;BME280;34776;48.180;16.420;2022-08-01T04:00:13;99549.91;;;22.78;53.66
48964;BME280;34776;48.180;16.420;2022-08-01T04:02:45;99561.13;;;22.83;53.37
48964;BME280;34776;48.180;16.420;2022-08-01T04:05:11;99559.78;;;22.87;53.17
48964;BME280;34776;48.180;16.420;2022-08-01T04:07:36;99563.00;;;22.91;53.19
48964;BME280;34776;48.180;16.420;2022-08-01T04:10:04;99568.09;;;22.94;53.24
48964;BME280;34776;48.180;16.420;2022-08-01T04:12:30;99572.50;;;22.95;52.99
48964;BME280;34776;48.180;16.420;2022-08-01T04:14:55;99569.47;;;22.98;52.90
48964;BME280;34776;48.180;16.420;2022-08-01T04:17:21;99576.06;;;22.96;53.06
48964;BME280;34776;48.180;16.420;2022-08-01T04:19:46;99582.06;;;22.73;54.20
48964;BME280;34776;48.180;16.420;2022-08-01T04:22:14;99575.53;;;22.49;55.19
48964;BME280;34776;48.180;16.420;2022-08-01T04:24:42;99572.09;;;22.39;56.13
48964;BME280;34776;48.180;16.420;2022-08-01T04:27:13;99585.72;;;22.29;56.67
48964;BME280;34776;48.180;16.420;2022-08-01T04:29:41;99581.19;;;22.30;57.21
48964;BME280;34776;48.180;16.420;2022-08-01T04:32:11;99584.44;;;22.42;56.89
48964;BME280;34776;48.180;16.420;2022-08-01T04:34:39;99590.44;;;22.54;56.74
48964;BME280;34776;48.180;16.420;2022-08-01T04:37:07;99584.94;;;22.72;56.45
48964;BME280;34776;48.180;16.420;2022-08-01T04:39:35;99586.50;;;22.82;56.13
48964;BME280;34776;48.180;16.420;2022-08-01T04:42:04;99587.41;;;22.99;55.84
48964;BME280;34776;48.180;16.420;2022-08-01T04:44:31;99591.22;;;23.15;55.74
48964;BME280;34776;48.180;16.420;2022-08-01T04:46:59;99593.44;;;23.27;55.15
48964;BME280;34776;48.180;16.420;2022-08-01T04:49:26;99588.06;;;23.36;54.75
48964;BME280;34776;48.180;16.420;2022-08-01T04:51:55;99591.09;;;23.41;54.25
48964;BME280;34776;48.180;16.420;2022-08-01T04:54:30;99595.00;;;23.46;54.05
48964;BME280;34776;48.180;16.420;2022-08-01T04:56:58;99593.16;;;23.55;53.60
48964;BME280;34776;48.180;16.420;2022-08-01T04:59:35;99598.94;;;23.60;53.26
48964;BME280;34776;48.180;16.420;2022-08-01T05:02:16;99593.50;;;23.68;53.16
48964;BME280;34776;48.180;16.420;2022-08-01T05:04:43;99588.78;;;23.79;52.84
48964;BME280;34776;48.180;16.420;2022-08-01T05:07:09;99592.84;;;23.91;52.59
48964;BME280;34776;48.180;16.420;2022-08-01T05:09:36;99590.50;;;23.96;52.32
48964;BME280;34776;48.180;16.420;2022-08-01T05:12:04;99586.75;;;24.05;51.79
48964;BME280;34776;48.180;16.420;2022-08-01T05:14:30;99590.63;;;24.19;51.39
48964;BME280;34776;48.180;16.420;2022-08-01T05:17:00;99596.22;;;24.26;51.54
48964;BME280;34776;48.180;16.420;2022-08-01T05:19:29;99588.91;;;24.35;51.28
48964;BME280;34776;48.180;16.420;2022-08-01T05:21:55;99583.63;;;24.33;51.08
48964;BME280;34776;48.180;16.420;2022-08-01T05:24:21;99578.03;;;24.35;50.70
48964;BME280;34776;48.180;16.420;2022-08-01T05:26:48;99584.31;;;24.35;50.93
48964;BME280;34776;48.180;16.420;2022-08-01T05:29:14;99593.16;;;24.29;50.44
48964;BME280;34776;48.180;16.420;2022-08-01T05:31:40;99587.56;;;24.22;50.73
48964;BME280;34776;48.180;16.420;2022-08-01T05:34:05;99582.50;;;24.19;50.17
48964;BME280;34776;48.180;16.420;2022-08-01T05:36:30;99590.28;;;24.22;50.89
48964;BME280;34776;48.180;16.420;2022-08-01T05:38:56;99586.19;;;24.26;50.90
48964;BME280;34776;48.180;16.420;2022-08-01T05:41:21;99585.16;;;24.36;50.60
48964;BME280;34776;48.180;16.420;2022-08-01T05:43:47;99589.88;;;24.42;50.11
48964;BME280;34776;48.180;16.420;2022-08-01T05:46:12;99579.19;;;24.48;49.31
48964;BME280;34776;48.180;16.420;2022-08-01T05:48:38;99582.25;;;24.54;49.17
48964;BME280;34776;48.180;16.420;2022-08-01T05:51:04;99592.06;;;24.63;49.21
48964;BME280;34776;48.180;16.420;2022-08-01T05:53:29;99592.00;;;24.79;49.02
48964;BME280;34776;48.180;16.420;2022-08-01T05:55:55;99590.81;;;24.82;48.70
48964;BME280;34776;48.180;16.420;2022-08-01T05:58:21;99595.66;;;24.95;48.44
48964;BME280;34776;48.180;16.420;2022-08-01T06:00:46;99596.47;;;25.11;48.01
48964;BME280;34776;48.180;16.420;2022-08-01T06:03:12;99601.34;;;25.24;47.71
48964;BME280;34776;48.180;16.420;2022-08-01T06:05:37;99598.94;;;25.29;47.60
48964;BME280;34776;48.180;16.420;2022-08-01T06:08:03;99609.81;;;25.29;47.60
48964;BME280;34776;48.180;16.420;2022-08-01T06:10:29;99604.97;;;25.40;47.05
48964;BME280;34776;48.180;16.420;2022-08-01T06:12:54;99602.22;;;25.48;47.00
48964;BME280;34776;48.180;16.420;2022-08-01T06:15:19;99614.13;;;25.70;46.55
48964;BME280;34776;48.180;16.420;2022-08-01T06:17:45;99602.78;;;25.89;46.34
48964;BME280;34776;48.180;16.420;2022-08-01T06:20:10;99602.53;;;26.14;45.52
48964;BME280;34776;48.180;16.420;2022-08-01T06:22:36;99601.16;;;26.33;44.87
48964;BME280;34776;48.180;16.420;2022-08-01T06:25:01;99604.63;;;26.27;44.81
48964;BME280;34776;48.180;16.420;2022-08-01T06:27:27;99610.38;;;26.32;44.87
48964;BME280;34776;48.180;16.420;2022-08-01T06:29:53;99611.13;;;26.26;44.90
48964;BME280;34776;48.180;16.420;2022-08-01T06:32:19;99608.97;;;26.21;44.99
48964;BME280;34776;48.180;16.420;2022-08-01T06:34:45;99617.72;;;26.46;44.78
48964;BME280;34776;48.180;16.420;2022-08-01T06:37:10;99612.13;;;26.63;44.57
48964;BME280;34776;48.180;16.420;2022-08-01T06:39:38;99605.44;;;26.80;44.50
48964;BME280;34776;48.180;16.420;2022-08-01T06:42:03;99618.50;;;27.00;43.73
48964;BME280;34776;48.180;16.420;2022-08-01T06:44:29;99614.13;;;27.20;43.12
48964;BME280;34776;48.180;16.420;2022-08-01T06:46:54;99617.38;;;27.09;43.44
48964;BME280;34776;48.180;16.420;2022-08-01T06:49:20;99614.75;;;27.01;43.68
48964;BME280;34776;48.180;16.420;2022-08-01T06:51:45;99609.41;;;26.78;43.79
48964;BME280;34776;48.180;16.420;2022-08-01T06:54:11;99611.25;;;26.92;43.34
48964;BME280;34776;48.180;16.420;2022-08-01T06:56:36;99615.88;;;26.91;43.13
48964;BME280;34776;48.180;16.420;2022-08-01T06:59:02;99614.34;;;27.55;42.07
48964;BME280;34776;48.180;16.420;2022-08-01T07:01:28;99621.50;;;28.21;41.05
48964;BME280;34776;48.180;16.420;2022-08-01T07:03:54;99614.53;;;29.16;40.09
48964;BME280;34776;48.180;16.420;2022-08-01T07:06:23;99621.88;;;29.70;38.16
48964;BME280;34776;48.180;16.420;2022-08-01T07:08:49;99617.69;;;32.72;34.93
48964;BME280;34776;48.180;16.420;2022-08-01T07:11:15;99612.94;;;32.35;34.09
48964;BME280;34776;48.180;16.420;2022-08-01T07:13:40;99603.28;;;31.38;34.37
48964;BME280;34776;48.180;16.420;2022-08-01T07:16:05;99616.44;;;30.10;36.68
48964;BME280;34776;48.180;16.420;2022-08-01T07:18:31;99622.31;;;29.94;36.85
48964;BME280;34776;48.180;16.420;2022-08-01T07:20:56;99613.84;;;29.75;37.03
48964;BME280;34776;48.180;16.420;2022-08-01T07:23:22;99610.97;;;30.37;35.67
48964;BME280;34776;48.180;16.420;2022-08-01T07:25:47;99612.81;;;31.28;35.50
48964;BME280;34776;48.180;16.420;2022-08-01T07:28:14;99611.75;;;33.12;33.21
48964;BME280;34776;48.180;16.420;2022-08-01T07:30:40;99609.97;;;32.81;32.31
48964;BME280;34776;48.180;16.420;2022-08-01T07:33:07;99616.19;;;32.51;33.01
48964;BME280;34776;48.180;16.420;2022-08-01T07:35:33;99613.94;;;31.91;33.80
48964;BME280;34776;48.180;16.420;2022-08-01T07:37:58;99619.84;;;31.63;34.38
48964;BME280;34776;48.180;16.420;2022-08-01T07:40:23;99621.75;;;31.17;35.20
48964;BME280;34776;48.180;16.420;2022-08-01T07:42:49;99612.63;;;30.51;36.24
48964;BME280;34776;48.180;16.420;2022-08-01T07:45:15;99624.22;;;30.07;37.23
48964;BME280;34776;48.180;16.420;2022-08-01T07:47:40;99624.78;;;29.62;38.30
48964;BME280;34776;48.180;16.420;2022-08-01T07:50:06;99626.09;;;29.11;39.00
48964;BME280;34776;48.180;16.420;2022-08-01T07:52:32;99630.66;;;28.63;39.96
48964;BME280;34776;48.180;16.420;2022-08-01T07:54:58;99631.97;;;28.17;40.54
48964;BME280;34776;48.180;16.420;2022-08-01T07:57:24;99630.78;;;27.83;41.33
48964;BME280;34776;48.180;16.420;2022-08-01T07:59:51;99634.38;;;27.62;41.92
48964;BME280;34776;48.180;16.420;2022-08-01T08:02:16;99630.44;;;27.50;42.17
48964;BME280;34776;48.180;16.420;2022-08-01T08:04:42;99632.66;;;27.40;42.73
48964;BME280;34776;48.180;16.420;2022-08-01T08:07:09;99639.72;;;27.34;43.08
48964;BME280;34776;48.180;16.420;2022-08-01T08:09:34;99630.25;;;27.30;42.94
48964;BME280;34776;48.180;16.420;2022-08-01T08:11:59;99629.00;;;27.32;42.83
48964;BME280;34776;48.180;16.420;2022-08-01T08:14:25;99632.56;;;27.18;43.16
48964;BME280;34776;48.180;16.420;2022-08-01T08:16:51;99635.22;;;27.11;43.01
48964;BME280;34776;48.180;16.420;2022-08-01T08:19:17;99640.22;;;27.08;43.54
48964;BME280;34776;48.180;16.420;2022-08-01T08:21:42;99641.03;;;27.08;43.36
48964;BME280;34776;48.180;16.420;2022-08-01T08:24:09;99639.06;;;27.17;43.01
48964;BME280;34776;48.180;16.420;2022-08-01T08:26:48;99651.28;;;27.21;42.88
48964;BME280;34776;48.180;16.420;2022-08-01T08:29:14;99650.94;;;27.24;42.96
48964;BME280;34776;48.180;16.420;2022-08-01T08:31:40;99652.16;;;27.22;42.83
48964;BME280;34776;48.180;16.420;2022-08-01T08:34:05;99640.50;;;26.83;42.22
48964;BME280;34776;48.180;16.420;2022-08-01T08:36:31;99651.97;;;26.64;42.96
48964;BME280;34776;48.180;16.420;2022-08-01T08:38:56;99645.19;;;26.89;42.81
48964;BME280;34776;48.180;16.420;2022-08-01T08:41:22;99660.69;;;27.33;41.98
48964;BME280;34776;48.180;16.420;2022-08-01T08:43:47;99653.81;;;28.17;40.47
48964;BME280;34776;48.180;16.420;2022-08-01T08:46:13;99652.69;;;30.19;37.92
48964;BME280;34776;48.180;16.420;2022-08-01T08:48:40;99648.41;;;32.87;34.05
48964;BME280;34776;48.180;16.420;2022-08-01T08:51:07;99644.25;;;33.82;32.18
48964;BME280;34776;48.180;16.420;2022-08-01T08:53:35;99642.94;;;34.27;31.54
48964;BME280;34776;48.180;16.420;2022-08-01T08:56:02;99645.25;;;33.88;31.74
48964;BME280;34776;48.180;16.420;2022-08-01T08:58:28;99653.09;;;34.14;31.19
48964;BME280;34776;48.180;16.420;2022-08-01T09:00:53;99641.31;;;35.25;30.01
48964;BME280;34776;48.180;16.420;2022-08-01T09:03:19;99643.53;;;35.81;28.99
48964;BME280;34776;48.180;16.420;2022-08-01T09:05:44;99634.84;;;36.56;28.93
48964;BME280;34776;48.180;16.420;2022-08-01T09:08:10;99636.88;;;37.71;27.14
48964;BME280;34776;48.180;16.420;2022-08-01T09:10:36;99637.34;;;36.75;27.95
48964;BME280;34776;48.180;16.420;2022-08-01T09:13:11;99642.38;;;35.93;27.70
48964;BME280;34776;48.180;16.420;2022-08-01T09:18:05;99634.91;;;34.25;30.63
48964;BME280;34776;48.180;16.420;2022-08-01T09:20:31;99645.97;;;33.95;31.08
48964;BME280;34776;48.180;16.420;2022-08-01T09:22:57;99646.50;;;33.73;31.31
48964;BME280;34776;48.180;16.420;2022-08-01T09:25:22;99653.44;;;33.64;31.56
48964;BME280;34776;48.180;16.420;2022-08-01T09:27:48;99646.25;;;33.45;32.06
48964;BME280;34776;48.180;16.420;2022-08-01T09:30:15;99645.09;;;33.22;32.18
48964;BME280;34776;48.180;16.420;2022-08-01T09:32:57;99641.69;;;33.02;29.77
48964;BME280;34776;48.180;16.420;2022-08-01T09:35:26;99644.06;;;32.36;32.29
48964;BME280;34776;48.180;16.420;2022-08-01T09:38:11;99645.78;;;32.55;31.94
48964;BME280;34776;48.180;16.420;2022-08-01T09:40:54;99645.06;;;32.85;30.80
48964;BME280;34776;48.180;16.420;2022-08-01T09:43:22;99645.31;;;32.59;31.67
48964;BME280;34776;48.180;16.420;2022-08-01T09:45:48;99652.84;;;32.20;31.74
48964;BME280;34776;48.180;16.420;2022-08-01T09:48:15;99636.19;;;32.14;32.16
48964;BME280;34776;48.180;16.420;2022-08-01T09:50:43;99648.81;;;32.22;31.75
48964;BME280;34776;48.180;16.420;2022-08-01T09:53:10;99639.03;;;32.51;31.78
48964;BME280;34776;48.180;16.420;2022-08-01T09:55:36;99638.53;;;32.80;31.52
48964;BME280;34776;48.180;16.420;2022-08-01T09:58:02;99642.22;;;32.92;31.24
48964;BME280;34776;48.180;16.420;2022-08-01T10:00:29;99643.25;;;33.16;31.04
48964;BME280;34776;48.180;16.420;2022-08-01T10:02:55;99639.38;;;32.99;31.02
48964;BME280;34776;48.180;16.420;2022-08-01T10:05:33;99633.50;;;32.58;31.31
48964;BME280;34776;48.180;16.420;2022-08-01T10:08:04;99633.00;;;32.18;31.99
48964;BME280;34776;48.180;16.420;2022-08-01T10:10:31;99640.44;;;32.10;32.06
48964;BME280;34776;48.180;16.420;2022-08-01T10:12:57;99646.84;;;32.29;31.79
48964;BME280;34776;48.180;16.420;2022-08-01T10:15:25;99637.25;;;32.64;31.58
48964;BME280;34776;48.180;16.420;2022-08-01T10:17:53;99631.06;;;32.87;31.59
48964;BME280;34776;48.180;16.420;2022-08-01T10:20:21;99635.78;;;32.98;31.37
48964;BME280;34776;48.180;16.420;2022-08-01T10:22:49;99626.72;;;33.16;30.78
48964;BME280;34776;48.180;16.420;2022-08-01T10:25:16;99624.41;;;33.13;30.92
48964;BME280;34776;48.180;16.420;2022-08-01T10:27:43;99629.41;;;33.23;30.86
48964;BME280;34776;48.180;16.420;2022-08-01T10:30:11;99634.16;;;33.46;31.23
48964;BME280;34776;48.180;16.420;2022-08-01T10:32:36;99630.09;;;33.18;31.54
48964;BME280;34776;48.180;16.420;2022-08-01T10:35:04;99633.09;;;32.54;31.59
48964;BME280;34776;48.180;16.420;2022-08-01T10:37:29;99632.03;;;32.05;32.45
48964;BME280;34776;48.180;16.420;2022-08-01T10:39:56;99627.25;;;31.87;32.93
48964;BME280;34776;48.180;16.420;2022-08-01T10:42:21;99623.88;;;31.92;32.92
48964;BME280;34776;48.180;16.420;2022-08-01T10:44:48;99628.06;;;31.94;31.89
48964;BME280;34776;48.180;16.420;2022-08-01T10:47:18;99618.56;;;31.65;32.25
48964;BME280;34776;48.180;16.420;2022-08-01T10:49:47;99617.63;;;31.78;32.79
48964;BME280;34776;48.180;16.420;2022-08-01T10:52:17;99615.34;;;32.00;32.44
48964;BME280;34776;48.180;16.420;2022-08-01T10:54:43;99610.44;;;32.34;32.62
48964;BME280;34776;48.180;16.420;2022-08-01T10:57:09;99611.28;;;32.78;31.75
48964;BME280;34776;48.180;16.420;2022-08-01T10:59:36;99612.94;;;32.97;31.69
48964;BME280;34776;48.180;16.420;2022-08-01T11:02:30;99604.09;;;33.14;30.96
48964;BME280;34776;48.180;16.420;2022-08-01T11:05:12;99596.06;;;33.43;31.08
48964;BME280;34776;48.180;16.420;2022-08-01T11:07:53;99609.69;;;33.68;30.51
48964;BME280;34776;48.180;16.420;2022-08-01T11:10:40;99610.09;;;32.86;30.81
48964;BME280;34776;48.180;16.420;2022-08-01T11:13:08;99606.97;;;32.82;31.48
48964;BME280;34776;48.180;16.420;2022-08-01T11:15:34;99604.56;;;33.41;30.78
48964;BME280;34776;48.180;16.420;2022-08-01T11:18:02;99602.34;;;33.92;29.85
48964;BME280;34776;48.180;16.420;2022-08-01T11:20:34;99593.28;;;33.61;29.85
48964;BME280;34776;48.180;16.420;2022-08-01T11:26:11;99597.47;;;33.33;30.13
48964;BME280;34776;48.180;16.420;2022-08-01T11:38:47;99582.50;;;33.11;28.68
48964;BME280;34776;48.180;16.420;2022-08-01T11:44:11;99576.19;;;32.48;29.56
48964;BME280;34776;48.180;16.420;2022-08-01T11:54:33;99572.84;;;32.28;29.97
48964;BME280;34776;48.180;16.420;2022-08-01T11:57:03;99566.22;;;32.10;30.47
48964;BME280;34776;48.180;16.420;2022-08-01T11:59:36;99573.41;;;32.11;30.35
48964;BME280;34776;48.180;16.420;2022-08-01T12:02:02;99586.19;;;31.99;30.73
48964;BME280;34776;48.180;16.420;2022-08-01T12:04:54;99589.69;;;31.49;31.08
48964;BME280;34776;48.180;16.420;2022-08-01T12:07:20;99590.91;;;31.15;32.05
48964;BME280;34776;48.180;16.420;2022-08-01T12:09:47;99585.03;;;31.11;32.59
48964;BME280;34776;48.180;16.420;2022-08-01T12:12:17;99588.34;;;31.20;32.36
48964;BME280;34776;48.180;16.420;2022-08-01T12:14:44;99580.34;;;31.19;32.62
48964;BME280;34776;48.180;16.420;2022-08-01T12:17:10;99578.31;;;31.01;32.85
48964;BME280;34776;48.180;16.420;2022-08-01T12:19:36;99585.63;;;30.62;33.50
48964;BME280;34776;48.180;16.420;2022-08-01T12:22:21;99591.34;;;30.20;34.00
48964;BME280;34776;48.180;16.420;2022-08-01T12:24:47;99592.41;;;29.99;33.94
48964;BME280;34776;48.180;16.420;2022-08-01T12:27:24;99597.22;;;29.77;34.42
48964;BME280;34776;48.180;16.420;2022-08-01T12:29:49;99603.28;;;29.59;34.90
48964;BME280;34776;48.180;16.420;2022-08-01T12:32:29;99605.28;;;29.17;36.20
48964;BME280;34776;48.180;16.420;2022-08-01T12:35:00;99600.44;;;28.78;36.68
48964;BME280;34776;48.180;16.420;2022-08-01T12:37:26;99593.22;;;28.63;36.81
48964;BME280;34776;48.180;16.420;2022-08-01T12:39:52;99595.94;;;28.63;37.13
48964;BME280;34776;48.180;16.420;2022-08-01T12:42:18;99596.78;;;28.64;37.54
48964;BME280;34776;48.180;16.420;2022-08-01T12:44:45;99607.06;;;28.62;37.21
48964;BME280;34776;48.180;16.420;2022-08-01T12:47:13;99605.78;;;28.58;36.73
48964;BME280;34776;48.180;16.420;2022-08-01T12:49:41;99602.25;;;28.64;36.05
48964;BME280;34776;48.180;16.420;2022-08-01T12:52:08;99596.63;;;28.72;35.71
48964;BME280;34776;48.180;16.420;2022-08-01T12:54:59;99599.22;;;28.87;34.52
48964;BME280;34776;48.180;16.420;2022-08-01T12:57:25;99594.25;;;29.04;34.81
48964;BME280;34776;48.180;16.420;2022-08-01T12:59:52;99597.28;;;29.16;34.66
48964;BME280;34776;48.180;16.420;2022-08-01T13:02:18;99595.63;;;29.21;35.08
48964;BME280;34776;48.180;16.420;2022-08-01T13:04:51;99597.72;;;29.19;36.49
48964;BME280;34776;48.180;16.420;2022-08-01T13:07:17;99601.81;;;29.02;36.75
48964;BME280;34776;48.180;16.420;2022-08-01T13:09:52;99593.56;;;29.43;38.61
48964;BME280;34776;48.180;16.420;2022-08-01T13:12:17;99591.97;;;29.82;36.45
48964;BME280;34776;48.180;16.420;2022-08-01T13:14:43;99596.56;;;29.62;36.58
48964;BME280;34776;48.180;16.420;2022-08-01T13:17:08;99589.47;;;30.07;36.29
48964;BME280;34776;48.180;16.420;2022-08-01T13:19:44;99580.47;;;30.85;35.29
48964;BME280;34776;48.180;16.420;2022-08-01T13:22:10;99578.41;;;31.64;34.53
48964;BME280;34776;48.180;16.420;2022-08-01T13:24:35;99578.44;;;32.14;33.88
48964;BME280;34776;48.180;16.420;2022-08-01T13:27:03;99576.63;;;32.27;33.44
48964;BME280;34776;48.180;16.420;2022-08-01T13:29:38;99580.00;;;32.29;33.77
48964;BME280;34776;48.180;16.420;2022-08-01T13:32:17;99575.31;;;32.36;33.49
48964;BME280;34776;48.180;16.420;2022-08-01T13:34:43;99574.19;;;32.19;34.10